Time;durP1;ratioP1;P1;durP2;ratioP2;P2;SDS_P1;SDS_P2;PMS_P1;PMS_P2;Temp;Humidity;BMP_temperature;BMP_pressure;BME280_temperature;BME280_humidity;BME280_pressure;Samples;Min_cycle;Max_cycle;Signal;HPM_P1;HPM_P2
2022/03/06 00:02:27;;;;;;;14.83;9.90;;;;;;;-2.30;76.21;98080.25;6227289;28;20228;-68
2022/03/06 00:05:30;;;;;;;13.17;8.50;;;;;;;-2.33;76.15;98084.63;6228195;28;20231;-69
2022/03/06 00:08:32;;;;;;;17.83;10.03;;;;;;;-2.35;76.70;98091.56;6209583;28;20232;-69
2022/03/06 00:11:34;;;;;;;15.37;9.03;;;;;;;-2.40;76.99;98089.09;6227859;28;20231;-69
2022/03/06 00:14:36;;;;;;;16.30;9.73;;;;;;;-2.41;76.55;98087.41;6211029;28;20231;-68
2022/03/06 00:17:38;;;;;;;14.80;9.60;;;;;;;-2.43;77.24;98080.56;6226739;28;20471;-69
2022/03/06 00:20:43;;;;;;;18.27;9.93;;;;;;;-2.46;76.54;98076.28;6209945;28;20247;-70
2022/03/06 00:23:45;;;;;;;16.40;10.60;;;;;;;-2.49;76.70;98071.19;6204307;28;20634;-70
2022/03/06 00:26:47;;;;;;;17.63;10.20;;;;;;;-2.53;76.39;98071.31;6202772;28;20703;-71
2022/03/06 00:29:49;;;;;;;15.67;9.30;;;;;;;-2.58;76.66;98066.22;6203761;28;20232;-70
2022/03/06 00:32:51;;;;;;;15.77;9.80;;;;;;;-2.60;76.95;98068.03;6201474;28;20635;-69
2022/03/06 00:35:53;;;;;;;17.87;9.90;;;;;;;-2.68;77.00;98069.88;6206858;28;20714;-70
2022/03/06 00:38:55;;;;;;;14.13;9.47;;;;;;;-2.73;76.77;98062.25;6225946;28;20220;-70
2022/03/06 00:41:57;;;;;;;15.43;9.67;;;;;;;-2.77;76.56;98062.34;6226425;28;20706;-69
2022/03/06 00:45:00;;;;;;;16.00;9.77;;;;;;;-2.79;77.10;98069.25;6228767;28;20254;-68
2022/03/06 00:48:03;;;;;;;15.90;9.10;;;;;;;-2.82;76.92;98067.63;6232734;28;20276;-68
2022/03/06 00:51:05;;;;;;;14.30;8.37;;;;;;;-2.86;77.53;98073.72;6251371;28;20209;-71
2022/03/06 00:54:07;;;;;;;17.03;10.10;;;;;;;-2.91;76.92;98075.56;6251422;28;20571;-69
2022/03/06 00:57:10;;;;;;;13.67;9.00;;;;;;;-2.94;77.09;98069.59;6251045;28;20202;-69
2022/03/06 01:00:12;;;;;;;17.47;10.33;;;;;;;-2.99;76.81;98069.69;6251478;28;20224;-70
2022/03/06 01:03:19;;;;;;;15.40;9.67;;;;;;;-3.03;77.62;98081.81;6250824;28;20296;-69
2022/03/06 01:06:21;;;;;;;15.70;10.70;;;;;;;-3.08;77.25;98081.03;6251381;28;20320;-69
2022/03/06 01:09:23;;;;;;;14.77;10.30;;;;;;;-3.12;76.64;98086.31;6251411;28;20227;-69
2022/03/06 01:12:25;;;;;;;16.70;10.43;;;;;;;-3.18;77.66;98076.94;6250226;28;20248;-69
2022/03/06 01:15:28;;;;;;;16.43;10.27;;;;;;;-3.26;77.39;98081.41;6232903;28;20223;-69
2022/03/06 01:18:30;;;;;;;20.40;11.90;;;;;;;-3.31;76.92;98078.06;6249357;28;20638;-68
2022/03/06 01:21:32;;;;;;;18.77;10.90;;;;;;;-3.39;77.11;98082.50;6226507;28;20710;-69
2022/03/06 01:24:34;;;;;;;21.33;11.63;;;;;;;-3.43;77.16;98080.88;6208457;28;20706;-68
2022/03/06 01:27:36;;;;;;;19.40;11.93;;;;;;;-3.50;77.29;98075.00;6207786;28;20243;-69
2022/03/06 01:30:38;;;;;;;16.50;10.43;;;;;;;-3.55;77.72;98076.78;6249878;28;20651;-68
2022/03/06 01:33:40;;;;;;;19.47;10.57;;;;;;;-3.59;77.06;98071.72;6250246;28;20230;-69
2022/03/06 01:36:42;;;;;;;16.80;10.63;;;;;;;-3.65;76.96;98072.66;6250442;28;20245;-69
2022/03/06 01:39:44;;;;;;;17.20;10.90;;;;;;;-3.69;77.66;98065.03;6233058;28;20239;-68
2022/03/06 01:42:48;;;;;;;14.73;11.10;;;;;;;-3.72;77.46;98071.94;6250899;28;20633;-69
2022/03/06 01:45:50;;;;;;;19.13;11.60;;;;;;;-3.74;77.13;98072.84;6241402;28;20719;-68
2022/03/06 01:48:52;;;;;;;16.87;10.77;;;;;;;-3.75;77.21;98074.56;6207570;28;20239;-69
2022/03/06 01:51:54;;;;;;;17.17;10.43;;;;;;;-3.75;77.21;98073.72;6226371;28;20239;-69
2022/03/06 01:54:56;;;;;;;17.37;11.37;;;;;;;-3.76;77.71;98072.00;6225810;28;20236;-68
2022/03/06 01:58:02;;;;;;;15.33;10.20;;;;;;;-3.79;77.25;98061.72;6225760;28;20257;-70
2022/03/06 02:01:04;;;;;;;17.07;11.77;;;;;;;-3.80;77.83;98062.63;6226497;28;20240;-69
2022/03/06 02:04:06;;;;;;;18.13;11.13;;;;;;;-3.81;77.81;98063.50;6226045;28;20239;-69
2022/03/06 02:07:08;;;;;;;16.93;10.97;;;;;;;-3.83;77.88;98070.41;6228992;28;20232;-69
2022/03/06 02:10:13;;;;;;;13.93;10.63;;;;;;;-3.87;77.54;98061.03;6225725;28;20373;-68
2022/03/06 02:13:16;;;;;;;20.57;12.00;;;;;;;-3.89;77.56;98060.22;6248965;28;20580;-68
2022/03/06 02:16:18;;;;;;;20.47;12.50;;;;;;;-3.90;77.85;98056.78;6224573;28;20352;-68
2022/03/06 02:19:20;;;;;;;16.33;11.03;;;;;;;-3.89;77.62;98052.50;6215715;28;20235;-68
2022/03/06 02:22:28;;;;;;;18.40;10.70;;;;;;;-3.90;78.01;98053.38;6249816;28;20231;-70
2022/03/06 02:25:34;;;;;;;18.20;11.00;;;;;;;-3.90;78.37;98056.78;6250074;28;20322;-69
2022/03/06 02:28:36;;;;;;;16.87;10.90;;;;;;;-3.88;78.24;98051.59;6238184;28;20966;-69
2022/03/06 02:31:39;;;;;;;18.30;11.70;;;;;;;-3.90;78.07;98054.22;6256721;28;20313;-69
2022/03/06 02:34:43;;;;;;;16.97;10.07;;;;;;;-3.90;79.04;98059.38;6254554;28;20258;-69
2022/03/06 02:37:47;;;;;;;19.20;11.00;;;;;;;-3.88;78.58;98057.59;6236296;28;20235;-69
2022/03/06 02:40:52;;;;;;;17.27;10.97;;;;;;;-3.89;78.29;98052.50;6255196;28;20237;-69
2022/03/06 02:43:54;;;;;;;15.73;9.70;;;;;;;-3.90;78.54;98048.22;6236483;28;20250;-70
2022/03/06 02:46:56;;;;;;;16.63;9.97;;;;;;;-3.92;78.74;98057.69;6253824;28;20238;-70
2022/03/06 02:49:59;;;;;;;20.87;11.77;;;;;;;-3.92;78.92;98045.66;6255388;28;20223;-70
2022/03/06 02:53:03;;;;;;;15.60;10.60;;;;;;;-3.96;78.91;98049.16;6253689;28;20705;-68
2022/03/06 02:56:06;;;;;;;21.40;12.20;;;;;;;-3.96;78.48;98058.59;6253090;28;20227;-69
2022/03/06 02:59:08;;;;;;;17.17;10.67;;;;;;;-3.95;78.80;98056.00;6254116;28;20560;-69
2022/03/06 03:02:10;;;;;;;16.90;11.20;;;;;;;-3.97;78.67;98057.75;6252590;28;20706;-69
2022/03/06 03:05:13;;;;;;;16.70;10.10;;;;;;;-3.96;78.68;98056.88;6253815;28;20226;-69
2022/03/06 03:08:15;;;;;;;18.43;11.53;;;;;;;-3.96;79.17;98058.59;6235313;28;20367;-69
2022/03/06 03:11:17;;;;;;;18.77;12.07;;;;;;;-3.99;78.49;98061.25;6254215;28;20238;-69
2022/03/06 03:14:19;;;;;;;18.27;10.67;;;;;;;-4.02;78.84;98054.41;6235069;28;20317;-68
2022/03/06 03:17:21;;;;;;;17.17;10.83;;;;;;;-4.03;79.18;98057.88;6235506;28;20223;-69
2022/03/06 03:20:23;;;;;;;17.23;10.80;;;;;;;-4.06;79.09;98057.06;6219750;28;20235;-70
2022/03/06 03:23:25;;;;;;;19.40;11.53;;;;;;;-4.09;79.05;98058.81;6211417;28;20334;-69
2022/03/06 03:26:27;;;;;;;17.60;11.13;;;;;;;-4.06;79.37;98063.06;6211623;28;20572;-69
2022/03/06 03:29:29;;;;;;;16.30;10.60;;;;;;;-4.07;79.86;98063.09;6229709;28;20718;-69
2022/03/06 03:32:31;;;;;;;17.10;11.33;;;;;;;-4.08;79.16;98064.81;6212090;28;20231;-69
2022/03/06 03:35:33;;;;;;;18.07;11.50;;;;;;;-4.06;79.06;98069.94;6227160;28;20234;-69
2022/03/06 03:38:35;;;;;;;20.67;11.83;;;;;;;-4.02;79.48;98071.59;6211700;28;20235;-70
2022/03/06 03:41:38;;;;;;;15.97;11.40;;;;;;;-4.05;79.57;98066.50;6227728;28;20239;-69
2022/03/06 03:44:40;;;;;;;20.37;11.83;;;;;;;-4.05;78.96;98061.34;6210855;28;20231;-69
2022/03/06 03:47:42;;;;;;;19.47;11.57;;;;;;;-4.04;80.25;98061.31;6233209;28;20303;-69
2022/03/06 03:50:44;;;;;;;17.60;11.50;;;;;;;-4.04;79.54;98063.88;6252458;28;20241;-70
2022/03/06 03:53:46;;;;;;;19.23;11.30;;;;;;;-4.03;79.92;98059.59;6251977;28;20346;-69
2022/03/06 03:56:48;;;;;;;17.90;11.63;;;;;;;-4.02;80.23;98063.88;6253354;28;20230;-69
2022/03/06 03:59:52;;;;;;;15.73;11.17;;;;;;;-4.03;79.50;98064.75;6235097;28;20735;-69
2022/03/06 04:02:54;;;;;;;19.07;12.43;;;;;;;-4.03;79.67;98067.31;6234784;28;20246;-70
2022/03/06 04:05:56;;;;;;;19.63;12.03;;;;;;;-4.03;79.79;98075.06;6235090;28;20254;-69
2022/03/06 04:08:58;;;;;;;17.37;11.47;;;;;;;-4.04;79.74;98071.63;6252025;28;20234;-69
2022/03/06 04:12:01;;;;;;;20.97;12.90;;;;;;;-4.02;79.85;98075.03;6252030;28;20231;-69
2022/03/06 04:15:03;;;;;;;19.23;10.37;;;;;;;-4.00;79.75;98075.00;6251611;28;20227;-70
2022/03/06 04:18:05;;;;;;;16.67;10.77;;;;;;;-3.99;79.90;98072.38;6251820;28;20211;-69
2022/03/06 04:21:07;;;;;;;15.73;9.83;;;;;;;-4.00;79.47;98078.44;6234652;28;20492;-70
2022/03/06 04:24:09;;;;;;;18.47;11.63;;;;;;;-4.02;79.52;98077.63;6251269;28;20601;-70
2022/03/06 04:27:11;;;;;;;17.77;11.33;;;;;;;-4.02;79.85;98085.34;6251568;28;20218;-69
2022/03/06 04:30:13;;;;;;;18.07;11.20;;;;;;;-4.03;79.90;98082.78;6234066;28;20211;-69
2022/03/06 04:33:15;;;;;;;20.50;12.30;;;;;;;-4.04;79.84;98075.94;6234057;28;20238;-69
2022/03/06 04:36:17;;;;;;;20.23;12.10;;;;;;;-4.03;80.10;98085.38;6216625;28;20690;-70
2022/03/06 04:39:19;;;;;;;18.43;11.80;;;;;;;-4.03;80.17;98087.94;6252974;28;20582;-69
2022/03/06 04:42:21;;;;;;;19.90;12.57;;;;;;;-4.03;79.82;98093.09;6251850;28;20659;-70
2022/03/06 04:45:25;;;;;;;18.37;11.57;;;;;;;-4.02;80.35;98087.91;6216671;28;20227;-69
2022/03/06 04:48:27;;;;;;;17.87;11.30;;;;;;;-4.02;79.76;98087.06;6250949;28;20237;-69
2022/03/06 04:51:30;;;;;;;19.83;11.23;;;;;;;-4.05;80.12;98092.25;6250843;28;20300;-69
2022/03/06 04:54:32;;;;;;;18.53;11.00;;;;;;;-4.07;80.20;98094.00;6249817;28;20226;-69
2022/03/06 04:57:34;;;;;;;21.27;12.00;;;;;;;-4.11;80.03;98091.50;6233595;28;20658;-69
2022/03/06 05:00:36;;;;;;;17.33;11.40;;;;;;;-4.11;80.33;98088.06;6251364;28;20248;-69
2022/03/06 05:03:39;;;;;;;19.07;11.83;;;;;;;-4.13;80.40;98098.41;6251174;28;20717;-70
2022/03/06 05:06:41;;;;;;;16.80;11.77;;;;;;;-4.16;80.35;98093.28;6250752;28;20739;-70
2022/03/06 05:09:42;;;;;;;18.63;11.90;;;;;;;-4.20;80.34;98095.94;6233317;28;20230;-69
2022/03/06 05:12:44;;;;;;;22.03;12.63;;;;;;;-4.26;80.04;98096.88;6249585;28;20299;-69
2022/03/06 05:15:46;;;;;;;18.97;12.53;;;;;;;-4.31;80.62;98090.94;6250576;28;20243;-69
2022/03/06 05:18:48;;;;;;;22.07;11.43;;;;;;;-4.34;80.78;98092.72;6213646;28;20238;-70
2022/03/06 05:21:50;;;;;;;18.70;12.30;;;;;;;-4.41;80.81;98098.84;6208696;28;20417;-69
2022/03/06 05:24:52;;;;;;;20.60;12.33;;;;;;;-4.46;80.06;98096.31;6192172;28;20665;-69
2022/03/06 05:27:54;;;;;;;19.27;12.93;;;;;;;-4.50;80.54;98099.81;6226892;28;21001;-70
2022/03/06 05:30:56;;;;;;;18.17;11.93;;;;;;;-4.56;80.58;98108.47;6208704;28;20729;-70
2022/03/06 05:33:58;;;;;;;18.60;11.43;;;;;;;-4.59;80.69;98118.78;6227258;28;20240;-69
2022/03/06 05:37:00;;;;;;;19.17;12.43;;;;;;;-4.62;80.52;98113.72;6226124;28;20243;-69
2022/03/06 05:40:05;;;;;;;20.93;12.40;;;;;;;-4.64;80.61;98118.03;6192323;28;20247;-69
2022/03/06 05:43:07;;;;;;;18.90;11.30;;;;;;;-4.65;80.18;98112.88;6224680;28;20691;-68
2022/03/06 05:46:09;;;;;;;21.33;11.87;;;;;;;-4.67;80.35;98112.91;6219007;28;20249;-69
2022/03/06 05:49:14;;;;;;;20.00;11.93;;;;;;;-4.66;80.25;98109.47;6249598;28;20234;-69
2022/03/06 05:52:19;;;;;;;17.87;11.30;;;;;;;-4.64;80.24;98114.59;6249364;28;20605;-68
2022/03/06 05:55:21;;;;;;;21.27;11.47;;;;;;;-4.61;80.35;98106.84;6250136;28;20256;-69
2022/03/06 05:58:23;;;;;;;18.10;11.80;;;;;;;-4.57;79.78;98108.47;6249700;28;20230;-69
2022/03/06 06:01:25;;;;;;;20.93;11.47;;;;;;;-4.55;80.08;98109.31;6231052;28;20344;-69
2022/03/06 06:04:27;;;;;;;18.30;12.30;;;;;;;-4.51;79.63;98109.25;6250118;28;20266;-69
2022/03/06 06:07:29;;;;;;;17.23;11.60;;;;;;;-4.46;79.51;98104.03;6236284;28;20230;-69
2022/03/06 06:10:31;;;;;;;19.90;12.43;;;;;;;-4.41;79.07;98103.97;6236576;28;20231;-68
2022/03/06 06:13:33;;;;;;;21.50;12.87;;;;;;;-4.37;79.57;98101.31;6254747;28;20235;-69
2022/03/06 06:16:36;;;;;;;18.63;12.23;;;;;;;-4.33;79.89;98104.72;6254466;28;20322;-70
2022/03/06 06:19:38;;;;;;;18.60;12.27;;;;;;;-4.30;79.42;98102.97;6236432;28;20226;-68
2022/03/06 06:22:40;;;;;;;18.37;11.70;;;;;;;-4.23;79.34;98107.13;6255763;28;20238;-69
2022/03/06 06:25:42;;;;;;;18.13;12.07;;;;;;;-4.20;79.38;98104.53;6241288;28;20253;-68
2022/03/06 06:28:44;;;;;;;18.23;11.50;;;;;;;-4.14;79.36;98104.41;6240655;28;20607;-68
2022/03/06 06:31:46;;;;;;;20.27;12.07;;;;;;;-4.07;79.37;98102.59;6238242;28;20242;-70
2022/03/06 06:34:48;;;;;;;20.00;12.77;;;;;;;-3.98;78.69;98099.00;6226690;28;20230;-70
2022/03/06 06:37:50;;;;;;;17.67;11.30;;;;;;;-3.91;78.39;98095.47;6223964;28;20253;-69
2022/03/06 06:40:52;;;;;;;22.57;13.53;;;;;;;-3.84;78.89;98102.22;6255064;28;20227;-70
2022/03/06 06:43:54;;;;;;;21.50;12.80;;;;;;;-3.78;78.32;98104.69;6219752;28;20241;-70
2022/03/06 06:46:56;;;;;;;19.50;11.73;;;;;;;-3.70;78.52;98104.59;6244189;28;20244;-69
2022/03/06 06:49:58;;;;;;;21.07;12.27;;;;;;;-3.65;78.33;98115.66;6229583;28;20230;-69
2022/03/06 06:53:00;;;;;;;20.13;11.97;;;;;;;-3.62;77.63;98111.31;6228929;28;20804;-69
2022/03/06 06:56:03;;;;;;;18.37;11.50;;;;;;;-3.57;77.83;98116.38;6210532;28;20250;-68
2022/03/06 06:59:05;;;;;;;20.20;11.63;;;;;;;-3.55;77.68;98123.22;6211292;28;20235;-69
2022/03/06 07:02:07;;;;;;;18.47;10.73;;;;;;;-3.45;77.68;98118.75;6211707;28;20231;-69
2022/03/06 07:05:09;;;;;;;17.80;11.27;;;;;;;-3.34;77.29;98127.16;6211345;28;20234;-68
2022/03/06 07:08:11;;;;;;;18.57;11.37;;;;;;;-3.26;76.40;98121.84;6229411;28;20227;-69
2022/03/06 07:11:14;;;;;;;18.07;11.23;;;;;;;-3.17;75.86;98126.81;6211449;28;20299;-70
2022/03/06 07:14:16;;;;;;;17.53;11.03;;;;;;;-3.08;75.85;98122.34;6211864;28;20236;-71
2022/03/06 07:17:17;;;;;;;20.23;11.57;;;;;;;-2.92;74.01;98128.06;6247822;28;20230;-69
2022/03/06 07:20:19;;;;;;;16.60;11.23;;;;;;;-2.75;72.76;98127.72;6251659;28;20353;-69
2022/03/06 07:23:22;;;;;;;20.43;12.57;;;;;;;-2.66;72.49;98117.22;6253651;28;20353;-69
2022/03/06 07:26:23;;;;;;;18.93;11.07;;;;;;;-2.62;72.60;98124.88;6234562;28;20706;-70
2022/03/06 07:29:29;;;;;;;18.20;11.67;;;;;;;-2.48;70.12;98124.56;6232652;28;20224;-68
2022/03/06 07:32:31;;;;;;;15.47;10.80;;;;;;;-2.30;68.84;98129.34;6240067;28;20268;-69
2022/03/06 07:35:36;;;;;;;16.93;11.40;;;;;;;-2.21;67.51;98119.69;6227200;28;20685;-69
2022/03/06 07:38:38;;;;;;;16.53;10.27;;;;;;;-2.02;65.39;98128.72;6227362;28;20223;-69
2022/03/06 07:41:39;;;;;;;17.07;11.60;;;;;;;-1.86;65.15;98130.06;6225576;28;20232;-68
2022/03/06 07:44:41;;;;;;;20.77;11.67;;;;;;;-1.83;65.00;98124.81;6228162;28;20338;-69
2022/03/06 07:47:45;;;;;;;16.23;10.27;;;;;;;-1.83;66.41;98126.56;6251827;28;20242;-69
2022/03/06 07:50:47;;;;;;;20.37;12.40;;;;;;;-1.77;65.76;98121.22;6253564;28;20697;-69
2022/03/06 07:53:49;;;;;;;19.93;12.40;;;;;;;-1.59;64.17;98121.63;6251090;28;20231;-68
2022/03/06 07:56:51;;;;;;;19.47;12.40;;;;;;;-1.43;63.86;98123.84;6233730;28;20223;-69
2022/03/06 07:59:53;;;;;;;20.37;13.17;;;;;;;-1.30;61.71;98114.88;6252197;28;20313;-69
2022/03/06 08:02:56;;;;;;;19.30;11.77;;;;;;;-1.10;61.80;98115.19;6252056;28;20330;-69
2022/03/06 08:05:58;;;;;;;19.37;12.23;;;;;;;-0.87;60.73;98107.63;6253131;28;20238;-69
2022/03/06 08:09:02;;;;;;;17.63;10.77;;;;;;;-0.63;59.56;98107.84;6233229;28;20242;-70
2022/03/06 08:12:05;;;;;;;18.37;11.00;;;;;;;-0.42;56.90;98117.59;6251261;28;20207;-69
2022/03/06 08:15:08;;;;;;;19.50;11.37;;;;;;;-0.15;57.63;98110.72;6233261;28;20215;-69
2022/03/06 08:18:10;;;;;;;19.40;11.87;;;;;;;0.14;55.34;98105.44;6251514;28;20691;-68
2022/03/06 08:21:12;;;;;;;16.73;9.77;;;;;;;0.43;55.50;98101.06;6230630;28;20220;-69
2022/03/06 08:24:16;;;;;;;18.60;10.67;;;;;;;0.73;54.36;98105.22;6226334;28;20236;-69
2022/03/06 08:27:18;;;;;;;17.63;10.93;;;;;;;1.03;53.31;98098.94;6227663;28;20230;-69
2022/03/06 08:30:20;;;;;;;16.90;11.13;;;;;;;1.43;53.01;98095.75;6208539;28;20230;-70
2022/03/06 08:33:21;;;;;;;16.43;10.13;;;;;;;1.55;50.29;98085.81;6226053;28;20246;-69
2022/03/06 08:36:23;;;;;;;15.00;9.87;;;;;;;1.81;50.69;98091.69;6226309;28;20235;-72
2022/03/06 08:39:25;;;;;;;16.17;10.20;;;;;;;2.14;49.68;98079.13;6226009;28;20698;-70
2022/03/06 08:42:27;;;;;;;14.63;10.53;;;;;;;2.30;49.34;98078.47;6227165;28;20231;-69
2022/03/06 08:45:30;;;;;;;13.10;9.07;;;;;;;2.87;49.77;98070.84;6213602;28;20604;-69
2022/03/06 08:48:32;;;;;;;16.20;10.80;;;;;;;3.10;47.76;98072.44;6249123;28;20242;-69
2022/03/06 08:51:35;;;;;;;13.33;9.57;;;;;;;3.06;45.74;98064.81;6249861;28;20231;-70
2022/03/06 08:54:37;;;;;;;13.40;9.60;;;;;;;2.74;45.40;98072.28;6230247;28;20231;-70
2022/03/06 08:57:39;;;;;;;14.40;10.20;;;;;;;2.69;46.76;98074.25;6226080;28;20734;-70
2022/03/06 09:00:41;;;;;;;14.00;9.73;;;;;;;3.12;45.46;98075.81;6224781;28;20258;-69
2022/03/06 09:03:44;;;;;;;16.43;9.97;;;;;;;3.06;45.62;98064.81;6225165;28;20243;-69
2022/03/06 09:06:45;;;;;;;15.10;9.47;;;;;;;3.39;46.18;98063.31;6244356;28;20235;-68
2022/03/06 09:09:47;;;;;;;17.30;10.67;;;;;;;3.55;45.74;98066.91;6232862;28;20666;-69
2022/03/06 09:12:49;;;;;;;14.03;9.50;;;;;;;2.95;46.23;98067.91;6251630;28;20314;-70
2022/03/06 09:15:52;;;;;;;12.97;9.57;;;;;;;2.79;46.19;98070.34;6249475;28;20243;-69
2022/03/06 09:18:54;;;;;;;14.40;9.93;;;;;;;2.91;44.22;98067.19;6228960;28;20227;-71
2022/03/06 09:21:56;;;;;;;18.50;10.67;;;;;;;3.01;44.49;98061.56;6208523;28;20462;-69
2022/03/06 09:24:57;;;;;;;13.80;9.07;;;;;;;2.96;44.36;98060.00;6225700;28;20243;-69
2022/03/06 09:28:00;;;;;;;13.47;9.93;;;;;;;3.12;45.62;98056.72;6192908;28;20239;-69
2022/03/06 09:31:02;;;;;;;13.13;9.20;;;;;;;3.48;43.41;98049.00;6227579;28;20231;-68
2022/03/06 09:34:04;;;;;;;15.50;10.23;;;;;;;3.22;44.61;98045.81;6250252;28;20231;-68
2022/03/06 09:37:19;;;;;;;13.70;9.93;;;;;;;3.33;43.58;98055.75;6235141;28;20238;-69
2022/03/06 09:40:21;;;;;;;15.63;10.23;;;;;;;3.11;44.67;98049.81;6223324;28;20401;-70
2022/03/06 09:43:24;;;;;;;13.10;8.83;;;;;;;3.09;46.10;98062.09;6225872;28;20779;-70
2022/03/06 09:46:26;;;;;;;14.40;9.67;;;;;;;2.78;44.36;98060.81;6225272;28;20239;-70
2022/03/06 09:49:28;;;;;;;15.23;10.00;;;;;;;2.48;44.77;98059.50;6224753;28;20319;-69
2022/03/06 09:52:30;;;;;;;13.03;9.37;;;;;;;2.22;45.90;98047.56;6207701;28;20601;-69
2022/03/06 09:55:32;;;;;;;14.83;9.93;;;;;;;2.30;45.33;98055.03;6198939;28;20251;-69
2022/03/06 09:58:34;;;;;;;12.27;8.77;;;;;;;2.19;44.86;98051.16;6200146;28;20239;-69
2022/03/06 10:01:36;;;;;;;13.73;9.90;;;;;;;2.73;44.58;98048.88;6200171;28;20240;-68
2022/03/06 10:04:39;;;;;;;17.13;11.03;;;;;;;3.55;44.58;98045.19;6200582;28;20451;-69
2022/03/06 10:07:41;;;;;;;12.77;10.00;;;;;;;4.25;42.24;98037.47;6200913;28;20395;-68
2022/03/06 10:10:44;;;;;;;16.43;10.83;;;;;;;4.68;41.64;98030.94;6201350;28;20228;-69
2022/03/06 10:13:46;;;;;;;15.73;10.73;;;;;;;4.23;41.32;98033.22;6200940;28;20228;-69
2022/03/06 10:17:07;;;;;;;17.70;11.67;;;;;;;3.70;43.64;98036.63;6206906;28;20711;-71
2022/03/06 10:20:10;;;;;;;18.40;12.00;;;;;;;3.76;43.98;98038.97;6181861;28;20237;-68
2022/03/06 10:23:26;;;;;;;17.13;11.47;;;;;;;3.18;44.65;98046.03;6222417;28;20235;-69
2022/03/06 10:26:32;;;;;;;17.63;11.33;;;;;;;2.94;46.05;98047.97;6193591;28;20263;-69
2022/03/06 10:29:34;;;;;;;14.93;11.17;;;;;;;3.04;46.58;98044.03;6199700;28;20722;-68
2022/03/06 10:32:43;;;;;;;17.93;12.60;;;;;;;3.14;46.25;98042.72;6200524;28;20341;-69
2022/03/06 10:35:55;;;;;;;15.03;10.67;;;;;;;3.00;45.40;98046.81;6202904;28;20235;-69
2022/03/06 10:38:57;;;;;;;15.40;10.43;;;;;;;2.61;45.32;98042.44;6246454;28;20888;-69
2022/03/06 10:42:00;;;;;;;16.83;11.07;;;;;;;2.37;46.02;98035.69;6232674;28;20235;-69
2022/03/06 10:45:03;;;;;;;14.70;10.40;;;;;;;3.28;45.39;98042.94;6246138;28;20243;-69
2022/03/06 10:48:09;;;;;;;16.17;10.80;;;;;;;4.49;42.63;98024.09;6247998;28;20252;-69
2022/03/06 10:51:13;;;;;;;13.20;10.17;;;;;;;4.92;39.10;98020.97;6231693;28;20203;-69
2022/03/06 10:54:16;;;;;;;17.83;10.57;;;;;;;4.81;40.38;98023.28;6252497;28;20679;-70
2022/03/06 10:57:22;;;;;;;14.20;9.43;;;;;;;4.30;41.50;98035.44;6253882;28;20708;-69
2022/03/06 11:00:24;;;;;;;13.73;10.00;;;;;;;3.58;41.28;98032.88;6252064;28;20704;-69
2022/03/06 11:03:26;;;;;;;14.30;9.27;;;;;;;3.69;42.37;98030.56;6235827;28;20228;-69
2022/03/06 11:06:37;;;;;;;14.03;9.37;;;;;;;3.74;42.54;98025.16;6252724;28;20225;-69
2022/03/06 11:09:39;;;;;;;15.10;10.50;;;;;;;3.53;42.22;98026.16;6235803;28;20698;-69
2022/03/06 11:12:42;;;;;;;13.27;9.77;;;;;;;3.34;42.56;98023.53;6252424;28;20226;-68
2022/03/06 11:15:44;;;;;;;15.03;10.50;;;;;;;3.33;42.37;98029.69;6235903;28;20282;-69
2022/03/06 11:18:47;;;;;;;14.93;11.07;;;;;;;2.88;43.53;98024.78;6228477;28;20251;-68
2022/03/06 11:21:55;;;;;;;18.57;11.83;;;;;;;2.92;43.64;98024.56;6253293;28;20746;-69
2022/03/06 11:25:05;;;;;;;21.53;13.73;;;;;;;2.37;45.46;98030.47;6234189;28;20326;-68
2022/03/06 11:28:29;;;;;;;17.27;12.77;;;;;;;2.33;46.12;98026.28;6252415;28;20250;-70
2022/03/06 11:31:43;;;;;;;15.70;11.20;;;;;;;2.18;46.75;98026.03;6251647;28;20708;-68
2022/03/06 11:34:46;;;;;;;17.70;11.53;;;;;;;1.96;44.86;98021.75;6230972;28;20236;-69
2022/03/06 11:37:55;;;;;;;16.23;10.50;;;;;;;2.05;44.50;98019.63;6211488;28;20240;-68
2022/03/06 11:41:09;;;;;;;15.67;11.37;;;;;;;2.00;44.54;98013.75;6242920;28;20246;-69
2022/03/06 11:44:32;;;;;;;12.87;9.77;;;;;;;1.96;44.75;98009.59;6234506;28;20709;-69
2022/03/06 11:47:35;;;;;;;14.13;10.07;;;;;;;2.16;44.78;98008.75;6244988;28;20242;-70
2022/03/06 11:50:40;;;;;;;15.33;10.67;;;;;;;2.59;44.33;98013.03;6211924;28;20623;-70
2022/03/06 11:54:05;;;;;;;16.33;10.77;;;;;;;2.85;44.36;98006.66;6227006;28;20230;-71
2022/03/06 11:57:08;;;;;;;18.03;11.47;;;;;;;3.22;43.95;98000.63;6225560;28;20456;-69
2022/03/06 12:00:20;;;;;;;17.50;10.87;;;;;;;3.54;42.86;97994.78;6234399;28;20701;-71
2022/03/06 12:03:22;;;;;;;17.43;11.93;;;;;;;3.87;43.18;97987.09;6250367;28;20226;-70
2022/03/06 12:06:24;;;;;;;17.17;12.23;;;;;;;3.92;41.65;97979.88;6248528;28;20220;-70
2022/03/06 12:09:31;;;;;;;15.07;10.20;;;;;;;4.16;41.60;97990.91;6233375;28;20219;-70
2022/03/06 12:12:35;;;;;;;14.43;11.33;;;;;;;3.57;40.65;97981.59;6233618;28;20220;-70
2022/03/06 12:15:37;;;;;;;16.03;11.00;;;;;;;3.92;40.88;97972.03;6233601;28;20713;-70
2022/03/06 12:18:39;;;;;;;15.40;10.80;;;;;;;4.12;40.84;97967.59;6231832;28;20731;-69
2022/03/06 12:21:41;;;;;;;15.67;10.50;;;;;;;3.78;40.53;97969.28;6250791;28;20329;-70
2022/03/06 12:24:46;;;;;;;15.73;11.53;;;;;;;3.23;41.27;97973.63;6233653;28;20638;-69
2022/03/06 12:28:00;;;;;;;16.87;11.40;;;;;;;2.75;41.56;97976.72;6251901;28;20701;-70
2022/03/06 12:31:30;;;;;;;17.20;11.37;;;;;;;2.69;42.26;97974.38;6251810;28;20235;-69
2022/03/06 12:34:38;;;;;;;15.70;10.93;;;;;;;2.77;43.38;97983.56;6252341;28;20227;-70
2022/03/06 12:37:51;;;;;;;16.37;11.53;;;;;;;2.65;43.18;97978.03;6232165;28;20242;-69
2022/03/06 12:40:53;;;;;;;15.10;11.43;;;;;;;2.65;43.42;97971.06;6252769;28;20629;-69
2022/03/06 12:44:22;;;;;;;17.37;11.07;;;;;;;2.77;42.50;97972.28;6250999;28;20259;-72
2022/03/06 12:47:29;;;;;;;15.43;10.23;;;;;;;2.85;43.13;97970.16;6253379;28;20239;-68
2022/03/06 12:50:31;;;;;;;16.60;10.70;;;;;;;2.66;42.29;97962.34;6250681;28;20781;-67
2022/03/06 12:53:33;;;;;;;13.87;10.70;;;;;;;2.52;43.87;97964.69;6250997;28;20246;-67
2022/03/06 12:56:38;;;;;;;14.63;10.63;;;;;;;2.65;43.80;97973.66;6249576;28;20228;-66
2022/03/06 12:59:43;;;;;;;19.30;12.57;;;;;;;2.28;43.17;97979.63;6251782;28;20224;-66
2022/03/06 13:02:53;;;;;;;18.03;12.00;;;;;;;2.01;44.64;97976.41;6251458;28;20242;-66
2022/03/06 13:05:56;;;;;;;17.17;12.03;;;;;;;1.90;44.36;97970.78;6249694;28;20269;-67
2022/03/06 13:08:58;;;;;;;16.77;12.43;;;;;;;1.81;44.80;97968.56;6251177;28;20547;-70
2022/03/06 13:12:02;;;;;;;16.63;11.77;;;;;;;1.98;44.74;97965.28;6251418;28;20238;-65
2022/03/06 13:15:13;;;;;;;16.33;11.83;;;;;;;2.03;44.82;97964.16;6249269;28;20219;-69
2022/03/06 13:18:19;;;;;;;16.53;11.63;;;;;;;2.18;45.08;97968.75;6250341;28;20698;-69
2022/03/06 13:21:21;;;;;;;17.83;12.43;;;;;;;2.21;44.78;97968.59;6227785;28;20224;-66
2022/03/06 13:24:23;;;;;;;19.17;11.97;;;;;;;2.28;45.06;97966.59;6225551;28;20239;-71
2022/03/06 13:27:34;;;;;;;16.73;11.63;;;;;;;2.49;44.97;97967.44;6208186;28;20236;-68
2022/03/06 13:30:36;;;;;;;14.63;9.90;;;;;;;2.74;44.18;97961.97;6226863;28;20328;-68
2022/03/06 13:33:38;;;;;;;15.33;11.40;;;;;;;2.92;44.18;97967.22;6225708;28;20238;-67
2022/03/06 13:36:43;;;;;;;14.90;11.43;;;;;;;2.72;43.35;97962.03;6233386;28;20240;-68
2022/03/06 13:39:54;;;;;;;15.63;11.67;;;;;;;2.66;44.70;97970.16;6231319;28;20709;-66
2022/03/06 13:42:57;;;;;;;15.70;11.00;;;;;;;2.57;43.85;97960.97;6231274;28;20216;-70
2022/03/06 13:46:00;;;;;;;14.53;11.50;;;;;;;2.63;43.82;97965.06;6249928;28;20238;-69
2022/03/06 13:49:10;;;;;;;16.13;11.50;;;;;;;2.67;43.83;97956.22;6230890;28;20220;-68
2022/03/06 13:52:12;;;;;;;15.00;10.83;;;;;;;2.78;43.53;97963.56;6249776;28;20739;-68
2022/03/06 13:55:16;;;;;;;15.03;10.77;;;;;;;2.67;42.30;97963.19;6247938;28;20351;-68
2022/03/06 13:58:19;;;;;;;16.60;10.77;;;;;;;2.70;42.67;97958.66;6252229;28;20227;-69
2022/03/06 14:01:23;;;;;;;16.40;10.73;;;;;;;2.76;43.14;97960.16;6249171;28;20228;-69
2022/03/06 14:04:26;;;;;;;15.03;10.60;;;;;;;2.71;42.93;97954.28;6232651;28;20231;-69
2022/03/06 14:07:29;;;;;;;13.97;10.13;;;;;;;2.31;42.68;97950.81;6249932;28;20332;-69
2022/03/06 14:10:39;;;;;;;15.20;10.80;;;;;;;2.35;43.29;97943.75;6248816;28;20232;-68